Krasnaya Polyana, Russia
Current Conditions -  °F | °C
As of 8:30 AM on Friday 31 Oct 2014 (Local Time) from URMT Reporting Station
Overcast Overcast  
Wind Chill: 41°   Ceiling: 900
Heat Index: 46°   Visibility: 6mi
Dew Point: 43°   Wind: 11mph
Humidity: 87%   Direction: 120°ESE
Pressure: 29.97"   Gusts: 18mph
Location:  44.98°N, 41.12°E
Report Text: URMT 310530Z 12005G08MPS 9999 BKN009 OVC100 08/06 Q1015 NOSIGRMK QFE721 SC060
Loading
Personal Weather Stations






























Interactive Weather Map
Tropical Storm Tracking
New forecast layout! Learn more

10-Day Weather Forecast

Advertisements
Track Severe Weather on mobile